createdAt,value
2023-03-29T00:00:45.940Z,4.52
2023-03-29T00:01:45.922Z,4.56
2023-03-29T00:02:46.826Z,4.56
2023-03-29T00:03:45.961Z,4.58
2023-03-29T00:04:45.951Z,4.63
2023-03-29T00:05:45.891Z,4.62
2023-03-29T00:06:45.823Z,4.62
2023-03-29T00:07:45.814Z,4.63
2023-03-29T00:08:45.881Z,4.66
2023-03-29T00:09:46.357Z,4.68
2023-03-29T00:10:45.793Z,4.58
2023-03-29T00:11:45.790Z,4.56
2023-03-29T00:12:45.755Z,4.59
2023-03-29T00:13:45.746Z,4.60
2023-03-29T00:14:45.819Z,4.68
2023-03-29T00:15:45.736Z,4.59
2023-03-29T00:16:45.767Z,4.60
2023-03-29T00:17:45.790Z,4.63
2023-03-29T00:18:45.756Z,4.66
2023-03-29T00:19:45.670Z,4.71
2023-03-29T00:20:45.689Z,4.74
2023-03-29T00:21:46.052Z,4.70
2023-03-29T00:22:45.667Z,4.74
2023-03-29T00:23:45.646Z,4.63
2023-03-29T00:24:45.655Z,4.68
2023-03-29T00:25:45.688Z,4.73
2023-03-29T00:26:45.654Z,4.60
2023-03-29T00:27:45.593Z,4.63
2023-03-29T00:28:46.549Z,4.68
2023-03-29T00:29:45.606Z,4.58
2023-03-29T00:30:45.599Z,4.55
2023-03-29T00:31:45.641Z,4.60
2023-03-29T00:32:45.581Z,4.52
2023-03-29T00:33:45.521Z,4.52
2023-03-29T00:34:45.590Z,4.55
2023-03-29T00:35:45.542Z,4.53
2023-03-29T00:36:45.528Z,4.55
2023-03-29T00:37:45.536Z,4.62
2023-03-29T00:38:45.495Z,4.48
2023-03-29T00:39:45.531Z,4.52
2023-03-29T00:40:45.502Z,4.42
2023-03-29T00:41:45.466Z,4.38
2023-03-29T00:42:45.487Z,4.32
2023-03-29T00:43:45.463Z,4.37
2023-03-29T00:44:45.450Z,4.34
2023-03-29T00:45:45.497Z,4.41
2023-03-29T00:46:45.540Z,4.41
2023-03-29T00:47:45.408Z,4.42
2023-03-29T00:48:45.846Z,4.42
2023-03-29T00:49:45.369Z,4.35
2023-03-29T00:50:45.789Z,4.34
2023-03-29T00:51:45.415Z,4.24
2023-03-29T00:52:45.534Z,4.31
2023-03-29T00:53:45.312Z,4.26
2023-03-29T00:54:45.368Z,4.19
2023-03-29T00:55:45.315Z,4.34
2023-03-29T00:56:45.358Z,4.30
2023-03-29T00:57:45.307Z,4.26
2023-03-29T00:58:45.271Z,4.31
2023-03-29T00:59:45.286Z,4.30
2023-03-29T01:00:45.316Z,4.30
2023-03-29T01:01:45.275Z,4.35
2023-03-29T01:02:45.319Z,4.31
2023-03-29T01:03:45.330Z,4.23
2023-03-29T01:04:45.289Z,4.31
2023-03-29T01:05:45.206Z,4.35
2023-03-29T01:06:45.219Z,4.28
2023-03-29T01:07:45.327Z,4.37
2023-03-29T01:08:45.213Z,4.32
2023-03-29T01:09:45.188Z,4.35
2023-03-29T01:10:45.194Z,4.37
2023-03-29T01:11:45.160Z,4.30
2023-03-29T01:12:45.186Z,4.40
2023-03-29T01:13:45.212Z,4.48
2023-03-29T01:14:45.212Z,4.35
2023-03-29T01:15:45.134Z,4.41
2023-03-29T01:16:45.169Z,4.31
2023-03-29T01:17:45.201Z,4.20
2023-03-29T01:18:45.097Z,4.28
2023-03-29T01:19:45.270Z,4.30
2023-03-29T01:20:45.063Z,4.20
2023-03-29T01:21:45.127Z,4.20
2023-03-29T01:22:45.083Z,4.20
2023-03-29T01:23:45.051Z,4.17
2023-03-29T01:24:45.048Z,4.08
2023-03-29T01:25:45.055Z,4.16
2023-03-29T01:26:45.151Z,4.12
2023-03-29T01:27:45.057Z,4.26
2023-03-29T01:28:45.054Z,4.20
2023-03-29T01:29:44.977Z,4.28
2023-03-29T01:30:44.975Z,4.26
2023-03-29T01:31:45.004Z,4.23
2023-03-29T01:32:44.989Z,4.17
2023-03-29T01:33:45.034Z,4.17
2023-03-29T01:34:44.970Z,4.10
2023-03-29T01:35:44.991Z,4.17
2023-03-29T01:36:44.934Z,4.16
2023-03-29T01:37:44.940Z,4.17
2023-03-29T01:38:44.968Z,4.16
2023-03-29T01:39:44.866Z,4.05
2023-03-29T01:40:44.944Z,4.13
2023-03-29T01:41:44.880Z,4.10
2023-03-29T01:42:44.893Z,4.13
2023-03-29T01:43:44.851Z,4.13
2023-03-29T01:44:44.863Z,4.26
2023-03-29T01:45:44.867Z,4.26
2023-03-29T01:46:44.871Z,4.20
2023-03-29T01:47:44.870Z,4.32
2023-03-29T01:48:44.870Z,4.22
2023-03-29T01:49:44.838Z,4.32
2023-03-29T01:50:44.797Z,4.30
2023-03-29T01:51:44.793Z,4.34
2023-03-29T01:52:44.768Z,4.23
2023-03-29T01:53:44.778Z,4.35
2023-03-29T01:54:44.763Z,4.34
2023-03-29T01:55:44.808Z,4.35
2023-03-29T01:56:44.881Z,4.38
2023-03-29T01:57:44.750Z,4.48
2023-03-29T01:58:44.742Z,4.45
2023-03-29T01:59:44.750Z,4.44
2023-03-29T02:00:44.720Z,4.49
2023-03-29T02:01:44.709Z,4.48
2023-03-29T02:02:44.724Z,4.59
2023-03-29T02:03:44.781Z,4.66
2023-03-29T02:04:44.711Z,4.62
2023-03-29T02:05:44.692Z,4.74
2023-03-29T02:06:44.632Z,4.66
2023-03-29T02:07:44.698Z,4.63
2023-03-29T02:08:44.619Z,4.78
2023-03-29T02:09:44.583Z,4.70
2023-03-29T02:10:45.537Z,4.63
2023-03-29T02:11:44.619Z,4.77
2023-03-29T02:12:44.629Z,4.58
2023-03-29T02:13:44.565Z,4.71
2023-03-29T02:14:44.545Z,4.70
2023-03-29T02:15:44.603Z,4.70
2023-03-29T02:16:44.571Z,4.66
2023-03-29T02:17:44.617Z,4.70
2023-03-29T02:18:44.533Z,4.63
2023-03-29T02:19:44.555Z,4.68
2023-03-29T02:20:44.520Z,4.77
2023-03-29T02:21:44.540Z,4.63
2023-03-29T02:22:45.515Z,4.71
2023-03-29T02:23:44.503Z,4.68
2023-03-29T02:24:44.498Z,4.74
2023-03-29T02:25:44.433Z,4.70
2023-03-29T02:26:44.464Z,4.70
2023-03-29T02:27:44.481Z,4.74
2023-03-29T02:28:44.475Z,4.74
2023-03-29T02:29:44.408Z,4.70
2023-03-29T02:30:44.589Z,4.71
2023-03-29T02:31:44.475Z,4.89
2023-03-29T02:32:44.444Z,4.82
2023-03-29T02:33:44.377Z,4.73
2023-03-29T02:34:44.433Z,4.68
2023-03-29T02:35:44.586Z,4.74
2023-03-29T02:36:44.373Z,4.78
2023-03-29T02:37:44.390Z,4.82
2023-03-29T02:38:44.333Z,4.78
2023-03-29T02:39:44.340Z,4.78
2023-03-29T02:40:44.388Z,4.73
2023-03-29T02:41:44.316Z,4.74
2023-03-29T02:42:44.403Z,4.90
2023-03-29T02:43:44.288Z,4.82
2023-03-29T02:44:44.256Z,4.84
2023-03-29T02:45:44.280Z,4.75
2023-03-29T02:46:44.351Z,4.80
2023-03-29T02:47:45.024Z,4.74
2023-03-29T02:48:44.297Z,4.70
2023-03-29T02:49:44.322Z,4.75
2023-03-29T02:50:44.273Z,4.74
2023-03-29T02:51:44.215Z,4.77
2023-03-29T02:52:44.249Z,4.67
2023-03-29T02:53:44.189Z,4.75
2023-03-29T02:54:44.988Z,4.87
2023-03-29T02:55:44.192Z,4.70
2023-03-29T02:56:44.221Z,4.71
2023-03-29T02:57:44.181Z,4.68
2023-03-29T02:58:44.166Z,4.77
2023-03-29T02:59:44.262Z,4.75
2023-03-29T03:00:44.137Z,4.74
2023-03-29T03:01:45.131Z,4.73
2023-03-29T03:02:44.193Z,4.86
2023-03-29T03:03:44.205Z,4.71
2023-03-29T03:04:44.151Z,4.77
2023-03-29T03:05:44.132Z,4.70
2023-03-29T03:06:44.063Z,4.78
2023-03-29T03:07:44.108Z,4.68
2023-03-29T03:08:44.117Z,4.67
2023-03-29T03:09:44.058Z,4.80
2023-03-29T03:10:45.055Z,4.71
2023-03-29T03:11:44.042Z,4.80
2023-03-29T03:12:44.039Z,4.74
2023-03-29T03:13:44.018Z,4.71
2023-03-29T03:14:43.973Z,4.75
2023-03-29T03:15:44.056Z,4.86
2023-03-29T03:16:44.013Z,4.86
2023-03-29T03:17:44.094Z,4.71
2023-03-29T03:18:43.971Z,4.87
2023-03-29T03:19:43.972Z,4.75
2023-03-29T03:20:43.994Z,4.75
2023-03-29T03:21:43.903Z,4.71
2023-03-29T03:22:43.955Z,4.78
2023-03-29T03:23:44.040Z,4.78
2023-03-29T03:24:43.917Z,4.78
2023-03-29T03:25:43.880Z,4.78
2023-03-29T03:26:43.954Z,4.77
2023-03-29T03:27:43.912Z,4.78
2023-03-29T03:28:43.862Z,4.74
2023-03-29T03:29:43.873Z,4.78
2023-03-29T03:30:43.881Z,4.82
2023-03-29T03:31:44.505Z,4.77
2023-03-29T03:32:43.849Z,4.78
2023-03-29T03:33:43.838Z,4.68
2023-03-29T03:34:43.814Z,4.73
2023-03-29T03:35:43.836Z,4.84
2023-03-29T03:36:43.799Z,4.78
2023-03-29T03:37:43.743Z,4.77
2023-03-29T03:38:43.882Z,4.77
2023-03-29T03:39:43.738Z,4.92
2023-03-29T03:40:43.742Z,4.87
2023-03-29T03:41:43.758Z,4.87
2023-03-29T03:42:43.741Z,4.86
2023-03-29T03:43:43.701Z,4.77
2023-03-29T03:44:43.694Z,4.77
2023-03-29T03:45:43.729Z,4.77
2023-03-29T03:46:43.677Z,4.89
2023-03-29T03:47:43.688Z,4.75
2023-03-29T03:48:43.698Z,4.75
2023-03-29T03:49:43.640Z,4.73
2023-03-29T03:50:43.653Z,4.80
2023-03-29T03:51:43.631Z,4.90
2023-03-29T03:52:43.616Z,4.78
2023-03-29T03:53:43.640Z,4.82
2023-03-29T03:54:43.577Z,4.87
2023-03-29T03:55:43.603Z,4.84
2023-03-29T03:56:43.667Z,4.77
2023-03-29T03:57:43.617Z,4.92
2023-03-29T03:58:43.620Z,4.78
2023-03-29T03:59:43.643Z,4.78
2023-03-29T04:00:43.677Z,4.77
2023-03-29T04:01:43.601Z,4.80
2023-03-29T04:02:43.566Z,4.73
2023-03-29T04:03:43.585Z,4.80
2023-03-29T04:04:43.427Z,4.80
2023-03-29T04:05:43.458Z,4.70
2023-03-29T04:06:43.926Z,4.67
2023-03-29T04:07:44.439Z,4.74
2023-03-29T04:08:43.471Z,4.77
2023-03-29T04:09:43.400Z,4.80
2023-03-29T04:10:43.412Z,4.71
2023-03-29T04:11:43.503Z,4.74
2023-03-29T04:12:43.404Z,4.73
2023-03-29T04:13:43.453Z,4.75
2023-03-29T04:14:43.365Z,4.84
2023-03-29T04:15:44.031Z,4.74
2023-03-29T04:16:43.361Z,4.78
2023-03-29T04:17:43.449Z,4.70
2023-03-29T04:18:43.474Z,4.75
2023-03-29T04:19:43.348Z,4.78
2023-03-29T04:20:43.312Z,4.80
2023-03-29T04:21:43.319Z,4.77
2023-03-29T04:22:43.322Z,4.92
2023-03-29T04:23:43.321Z,4.74
2023-03-29T04:24:43.305Z,4.84
2023-03-29T04:25:43.298Z,4.87
2023-03-29T04:26:43.286Z,4.77
2023-03-29T04:27:43.270Z,4.87
2023-03-29T04:28:43.292Z,4.86
2023-03-29T04:29:43.276Z,4.84
2023-03-29T04:30:43.213Z,4.84
2023-03-29T04:31:43.256Z,4.92
2023-03-29T04:32:43.261Z,4.89
2023-03-29T04:33:43.313Z,4.94
2023-03-29T04:34:43.191Z,4.78
2023-03-29T04:35:43.183Z,4.89
2023-03-29T04:36:43.192Z,4.93
2023-03-29T04:37:43.165Z,4.84
2023-03-29T04:38:47.374Z,4.87
2023-03-29T04:39:43.122Z,4.94
2023-03-29T04:40:43.156Z,4.93
2023-03-29T04:41:43.104Z,4.90
2023-03-29T04:42:43.119Z,5.00
2023-03-29T04:43:43.171Z,4.99
2023-03-29T04:44:43.132Z,4.90
2023-03-29T04:45:43.109Z,4.97
2023-03-29T04:46:43.230Z,4.92
2023-03-29T04:47:43.195Z,4.99
2023-03-29T04:48:43.064Z,4.90
2023-03-29T04:49:43.086Z,4.96
2023-03-29T04:50:43.038Z,5.00
2023-03-29T04:51:42.995Z,4.96
2023-03-29T04:52:42.988Z,4.90
2023-03-29T04:53:43.019Z,4.93
2023-03-29T04:54:43.164Z,4.89
2023-03-29T04:55:42.963Z,4.92
2023-03-29T04:56:43.004Z,4.77
2023-03-29T04:57:42.958Z,4.78
2023-03-29T04:58:42.984Z,4.75
2023-03-29T04:59:43.004Z,4.80
2023-03-29T05:00:42.929Z,4.70
2023-03-29T05:01:43.171Z,4.66
2023-03-29T05:02:43.030Z,4.80
2023-03-29T05:03:43.010Z,4.82
2023-03-29T05:04:43.063Z,4.80
2023-03-29T05:05:42.887Z,4.86
2023-03-29T05:06:43.510Z,4.86
2023-03-29T05:07:42.866Z,5.00
2023-03-29T05:08:42.894Z,4.94
2023-03-29T05:09:42.826Z,4.89
2023-03-29T05:10:42.834Z,4.94
2023-03-29T05:11:42.862Z,4.90
2023-03-29T05:12:42.819Z,4.97
2023-03-29T05:13:43.580Z,4.99
2023-03-29T05:14:42.874Z,4.82
2023-03-29T05:15:42.800Z,4.86
2023-03-29T05:16:42.901Z,4.90
2023-03-29T05:17:42.797Z,4.84
2023-03-29T05:18:42.766Z,4.75
2023-03-29T05:19:42.805Z,4.71
2023-03-29T05:20:43.477Z,4.74
2023-03-29T05:21:44.387Z,4.82
2023-03-29T05:22:44.546Z,4.71
2023-03-29T05:23:42.733Z,4.71
2023-03-29T05:24:42.694Z,4.78
2023-03-29T05:25:42.671Z,4.82
2023-03-29T05:26:42.658Z,4.82
2023-03-29T05:27:42.718Z,4.73
2023-03-29T05:28:42.680Z,4.75
2023-03-29T05:29:42.667Z,4.71
2023-03-29T05:30:42.626Z,4.68
2023-03-29T05:31:42.685Z,4.80
2023-03-29T05:32:42.661Z,4.80
2023-03-29T05:33:42.665Z,4.74
2023-03-29T05:34:42.642Z,4.73
2023-03-29T05:35:42.555Z,4.82
2023-03-29T05:36:42.599Z,4.86
2023-03-29T05:37:42.571Z,4.92
2023-03-29T05:38:42.558Z,4.89
2023-03-29T05:39:42.539Z,4.93
2023-03-29T05:40:42.534Z,5.00
2023-03-29T05:41:43.569Z,4.97
2023-03-29T05:42:42.528Z,5.04
2023-03-29T05:43:43.511Z,4.96
2023-03-29T05:44:42.488Z,5.11
2023-03-29T05:45:42.573Z,5.10
2023-03-29T05:46:42.451Z,5.15
2023-03-29T05:47:42.532Z,5.14
2023-03-29T05:48:43.409Z,5.28
2023-03-29T05:49:45.163Z,5.23
2023-03-29T05:50:44.398Z,5.17
2023-03-29T05:51:42.479Z,5.18
2023-03-29T05:52:42.629Z,5.32
2023-03-29T05:53:42.397Z,5.32
2023-03-29T05:54:42.440Z,5.28
2023-03-29T05:55:42.628Z,5.26
2023-03-29T05:56:42.469Z,5.26
2023-03-29T05:57:42.461Z,5.30
2023-03-29T05:58:42.476Z,5.36
2023-03-29T05:59:42.381Z,5.39
2023-03-29T06:00:42.353Z,5.44
2023-03-29T06:01:42.368Z,5.35
2023-03-29T06:02:42.447Z,5.32
2023-03-29T06:03:42.565Z,5.41
2023-03-29T06:04:42.340Z,5.39
2023-03-29T06:05:42.395Z,5.50
2023-03-29T06:06:42.533Z,5.36
2023-03-29T06:07:42.341Z,5.21
2023-03-29T06:08:42.327Z,5.36
2023-03-29T06:09:42.296Z,5.36
2023-03-29T06:10:42.390Z,5.28
2023-03-29T06:11:42.313Z,5.32
2023-03-29T06:12:42.287Z,5.44
2023-03-29T06:13:42.393Z,5.51
2023-03-29T06:14:42.344Z,5.35
2023-03-29T06:15:42.314Z,5.43
2023-03-29T06:16:42.937Z,5.33
2023-03-29T06:17:43.332Z,5.44
2023-03-29T06:18:42.309Z,5.48
2023-03-29T06:32:51.049Z,5.41
2023-03-29T06:33:51.092Z,5.38
2023-03-29T06:34:50.969Z,5.32
2023-03-29T06:35:51.020Z,5.38
2023-03-29T06:36:50.838Z,5.33
2023-03-29T06:37:50.790Z,5.43
2023-03-29T06:38:51.970Z,5.44
2023-03-29T06:39:53.226Z,5.51
2023-03-29T06:40:53.000Z,5.66
2023-03-29T06:41:51.917Z,5.57
2023-03-29T06:42:51.911Z,5.53
2023-03-29T06:43:51.920Z,5.53
2023-03-29T06:44:51.952Z,5.57
2023-03-29T06:45:51.904Z,5.69
2023-03-29T06:46:51.976Z,5.71
2023-03-29T06:47:52.808Z,5.68
2023-03-29T06:48:51.850Z,5.73
2023-03-29T06:49:52.592Z,5.66
2023-03-29T06:50:51.854Z,5.80
2023-03-29T06:51:51.807Z,5.93
2023-03-29T06:52:51.813Z,5.98
2023-03-29T06:53:51.780Z,5.97
2023-03-29T06:54:51.810Z,6.08
2023-03-29T06:55:51.794Z,5.99
2023-03-29T06:56:51.799Z,6.01
2023-03-29T06:57:51.811Z,5.99
2023-03-29T06:58:51.753Z,6.01
2023-03-29T06:59:51.762Z,6.11
2023-03-29T07:00:51.762Z,6.08
2023-03-29T07:01:51.809Z,6.20
2023-03-29T07:02:51.795Z,6.26
2023-03-29T07:03:51.735Z,6.30
2023-03-29T07:04:51.766Z,6.44
2023-03-29T07:05:51.696Z,6.45
2023-03-29T07:06:51.717Z,6.46
2023-03-29T07:07:51.668Z,6.52
2023-03-29T07:08:51.724Z,6.57
2023-03-29T07:09:51.702Z,6.59
2023-03-29T07:10:51.618Z,6.66
2023-03-29T07:11:51.641Z,6.64
2023-03-29T07:12:51.726Z,6.67
2023-03-29T07:13:51.642Z,6.59
2023-03-29T07:14:51.636Z,6.67
2023-03-29T07:15:51.595Z,6.63
2023-03-29T07:16:51.570Z,6.62
2023-03-29T07:17:51.592Z,6.64
2023-03-29T07:18:51.569Z,6.63
2023-03-29T07:19:52.076Z,6.77
2023-03-29T07:20:51.531Z,6.79
2023-03-29T07:21:51.538Z,6.70
2023-03-29T07:22:51.590Z,6.70
2023-03-29T07:23:51.559Z,6.66
2023-03-29T07:24:51.574Z,6.82
2023-03-29T07:25:51.533Z,6.79
2023-03-29T07:27:03.200Z,6.82
2023-03-29T07:27:53.487Z,6.77
2023-03-29T07:28:51.479Z,6.74
2023-03-29T07:29:51.532Z,6.75
2023-03-29T07:30:51.593Z,6.63
2023-03-29T07:31:51.440Z,6.62
2023-03-29T07:32:51.540Z,6.72
2023-03-29T07:33:51.472Z,6.85
2023-03-29T07:34:51.442Z,6.70
2023-03-29T07:35:51.460Z,6.92
2023-03-29T07:36:51.496Z,6.88
2023-03-29T07:37:51.473Z,6.81
2023-03-29T07:38:52.450Z,6.77
2023-03-29T07:39:51.396Z,6.88
2023-03-29T07:40:51.617Z,6.93
2023-03-29T07:41:51.379Z,6.92
2023-03-29T07:42:51.401Z,6.96
2023-03-29T07:43:51.557Z,6.92
2023-03-29T07:44:51.393Z,6.92
2023-03-29T07:45:51.431Z,7.00
2023-03-29T07:46:51.300Z,6.93
2023-03-29T07:47:51.439Z,6.89
2023-03-29T07:48:51.325Z,7.02
2023-03-29T07:49:51.354Z,7.07
2023-03-29T07:50:52.368Z,7.06
2023-03-29T07:51:51.268Z,7.15
2023-03-29T07:52:51.230Z,7.11
2023-03-29T07:53:51.233Z,7.24
2023-03-29T07:54:51.263Z,7.32
2023-03-29T07:55:51.246Z,7.31
2023-03-29T07:56:51.318Z,7.42
2023-03-29T07:57:51.217Z,7.42
2023-03-29T07:58:51.224Z,7.45
2023-03-29T07:59:51.232Z,7.56
2023-03-29T08:00:51.268Z,7.40
2023-03-29T08:01:51.231Z,7.51
2023-03-29T08:02:51.201Z,7.47
2023-03-29T08:03:51.441Z,7.60
2023-03-29T08:04:51.147Z,7.53
2023-03-29T08:05:51.132Z,7.54
2023-03-29T08:06:51.051Z,7.56
2023-03-29T08:07:51.097Z,7.67
2023-03-29T08:08:51.087Z,7.69
2023-03-29T08:09:51.113Z,7.79
2023-03-29T08:10:51.071Z,7.79
2023-03-29T08:11:51.030Z,7.85
2023-03-29T08:12:51.075Z,7.80
2023-03-29T08:13:50.998Z,7.91
2023-03-29T08:14:51.010Z,7.94
2023-03-29T08:15:51.007Z,7.97
2023-03-29T08:16:51.105Z,7.97
2023-03-29T08:17:51.041Z,7.91
2023-03-29T08:18:50.956Z,8.00
2023-03-29T08:19:51.678Z,7.97
2023-03-29T08:20:51.037Z,8.01
2023-03-29T08:21:50.943Z,8.06
2023-03-29T08:22:50.959Z,8.10
2023-03-29T08:23:51.033Z,8.08
2023-03-29T08:24:51.072Z,8.05
2023-03-29T08:25:51.003Z,7.98
2023-03-29T08:26:51.063Z,7.85
2023-03-29T08:27:50.860Z,7.85
2023-03-29T08:28:50.932Z,7.85
2023-03-29T08:29:51.278Z,7.87
2023-03-29T08:30:50.888Z,7.87
2023-03-29T08:31:51.586Z,7.87
2023-03-29T08:32:52.286Z,7.88
2023-03-29T08:33:51.873Z,7.94
2023-03-29T08:34:50.871Z,7.95
2023-03-29T08:35:50.858Z,7.91
2023-03-29T08:36:51.766Z,7.93
2023-03-29T08:37:50.813Z,7.93
2023-03-29T08:38:50.817Z,7.87
2023-03-29T08:39:50.765Z,7.91
2023-03-29T08:40:50.740Z,8.05
2023-03-29T08:41:50.743Z,8.09
2023-03-29T08:42:50.753Z,8.10
2023-03-29T08:43:51.253Z,8.20
2023-03-29T08:44:50.747Z,8.09
2023-03-29T08:45:51.094Z,8.15
2023-03-29T08:46:51.828Z,8.26
2023-03-29T08:47:50.721Z,8.27
2023-03-29T08:48:50.782Z,8.34
2023-03-29T08:49:50.695Z,8.20
2023-03-29T08:50:50.692Z,8.37
2023-03-29T08:51:50.730Z,8.36
2023-03-29T08:52:50.735Z,8.37
2023-03-29T08:53:50.624Z,8.42
2023-03-29T08:54:50.668Z,8.36
2023-03-29T08:55:50.751Z,8.41
2023-03-29T08:56:50.988Z,8.44
2023-03-29T08:57:50.618Z,8.49
2023-03-29T08:58:50.655Z,8.60
2023-03-29T08:59:50.597Z,8.58
2023-03-29T09:00:50.624Z,8.61
2023-03-29T09:01:50.780Z,8.53
2023-03-29T09:02:50.648Z,8.48
2023-03-29T09:03:50.694Z,8.58
2023-03-29T09:04:50.518Z,8.58
2023-03-29T09:05:50.504Z,8.63
2023-03-29T09:06:50.571Z,8.56
2023-03-29T09:07:50.545Z,8.63
2023-03-29T09:08:50.820Z,8.60
2023-03-29T09:09:50.511Z,8.55
2023-03-29T09:10:50.482Z,8.63
2023-03-29T09:11:50.438Z,8.71
2023-03-29T09:12:50.602Z,8.78
2023-03-29T09:13:50.432Z,8.84
2023-03-29T09:14:50.515Z,8.88
2023-03-29T09:15:50.763Z,8.99
2023-03-29T09:16:50.409Z,8.95
2023-03-29T09:17:50.419Z,9.08
2023-03-29T09:18:50.442Z,9.16
2023-03-29T09:19:50.394Z,9.23
2023-03-29T09:20:50.469Z,9.22
2023-03-29T09:21:50.353Z,9.18
2023-03-29T09:22:50.430Z,9.19
2023-03-29T09:23:50.344Z,9.11
2023-03-29T09:24:50.420Z,9.29
2023-03-29T09:25:53.531Z,9.29
2023-03-29T09:26:51.314Z,9.21
2023-03-29T09:27:51.218Z,9.25
2023-03-29T09:28:50.314Z,9.08
2023-03-29T09:29:50.252Z,8.97
2023-03-29T09:30:50.411Z,8.94
2023-03-29T09:31:50.290Z,8.97
2023-03-29T09:32:50.383Z,9.04
2023-03-29T09:33:50.222Z,9.03
2023-03-29T09:34:50.275Z,8.99
2023-03-29T09:35:50.284Z,9.00
2023-03-29T09:36:50.313Z,9.06
2023-03-29T09:37:50.272Z,8.99
2023-03-29T09:38:50.292Z,8.92
2023-03-29T09:39:50.133Z,8.97
2023-03-29T09:40:50.258Z,9.04
2023-03-29T09:41:50.120Z,9.03
2023-03-29T09:42:50.232Z,9.02
2023-03-29T09:43:51.250Z,9.19
2023-03-29T09:44:50.221Z,9.08
2023-03-29T09:45:50.226Z,9.22
2023-03-29T09:46:50.090Z,9.36
2023-03-29T09:47:50.149Z,9.29
2023-03-29T09:48:50.180Z,9.31
2023-03-29T09:49:50.123Z,9.34
2023-03-29T09:50:50.181Z,9.47
2023-03-29T09:51:53.131Z,9.44
2023-03-29T09:52:50.173Z,9.31
2023-03-29T09:53:50.119Z,9.28
2023-03-29T09:54:49.994Z,9.31
2023-03-29T09:55:50.481Z,9.43
2023-03-29T09:57:22.725Z,9.29
2023-03-29T09:57:50.178Z,9.41
2023-03-29T09:58:50.291Z,9.47
2023-03-29T09:59:50.097Z,9.51
2023-03-29T10:00:50.061Z,9.58
2023-03-29T10:01:50.095Z,9.54
2023-03-29T10:02:49.963Z,9.68
2023-03-29T10:03:50.356Z,9.82
2023-03-29T10:04:49.974Z,9.98
2023-03-29T10:05:49.981Z,9.97
2023-03-29T10:06:50.032Z,9.91
2023-03-29T10:07:49.939Z,9.79
2023-03-29T10:08:49.927Z,9.72
2023-03-29T10:09:49.908Z,9.69
2023-03-29T10:10:49.942Z,9.59
2023-03-29T10:11:50.741Z,9.79
2023-03-29T10:12:49.873Z,9.87
2023-03-29T10:13:50.629Z,9.91
2023-03-29T10:14:51.520Z,10.02
2023-03-29T10:15:49.905Z,9.97
2023-03-29T10:16:49.869Z,10.05
2023-03-29T10:17:49.884Z,10.12
2023-03-29T10:18:49.951Z,10.15
2023-03-29T10:19:49.825Z,10.10
2023-03-29T10:20:49.817Z,10.10
2023-03-29T10:21:49.778Z,9.99
2023-03-29T10:22:49.883Z,10.01
2023-03-29T10:23:49.751Z,10.07
2023-03-29T10:24:49.752Z,10.10
2023-03-29T10:25:49.845Z,10.23
2023-03-29T10:26:49.743Z,10.26
2023-03-29T10:27:49.712Z,10.37
2023-03-29T10:28:49.710Z,10.46
2023-03-29T10:29:50.044Z,10.60
2023-03-29T10:30:49.762Z,10.67
2023-03-29T10:31:49.788Z,10.68
2023-03-29T10:32:49.770Z,10.60
2023-03-29T10:33:49.718Z,10.60
2023-03-29T10:34:49.813Z,10.53
2023-03-29T10:35:49.670Z,10.40
2023-03-29T10:36:49.686Z,10.38
2023-03-29T10:37:49.624Z,10.51
2023-03-29T10:38:49.596Z,10.54
2023-03-29T10:39:49.690Z,10.57
2023-03-29T10:40:49.597Z,10.53
2023-03-29T10:41:49.630Z,10.56
2023-03-29T10:42:49.598Z,10.64
2023-03-29T10:43:49.647Z,10.82
2023-03-29T10:44:49.539Z,10.78
2023-03-29T10:45:49.592Z,10.79
2023-03-29T10:46:49.531Z,10.74
2023-03-29T10:47:49.552Z,10.90
2023-03-29T10:48:50.346Z,10.92
2023-03-29T10:49:50.846Z,11.02
2023-03-29T10:50:49.635Z,11.00
2023-03-29T10:51:49.478Z,10.86
2023-03-29T10:52:49.483Z,11.05
2023-03-29T10:53:49.449Z,11.14
2023-03-29T10:54:49.431Z,11.32
2023-03-29T10:55:49.629Z,11.25
2023-03-29T10:56:50.810Z,11.37
2023-03-29T10:57:49.540Z,11.37
2023-03-29T10:58:49.414Z,11.40
2023-03-29T10:59:49.419Z,11.40
2023-03-29T11:00:49.392Z,11.43
2023-03-29T11:01:49.392Z,11.50
2023-03-29T11:02:49.450Z,11.51
2023-03-29T11:03:49.509Z,11.48
2023-03-29T11:04:49.387Z,11.52
2023-03-29T11:05:49.331Z,11.48
2023-03-29T11:06:49.328Z,11.65
2023-03-29T11:07:49.328Z,11.51
2023-03-29T11:08:49.298Z,11.32
2023-03-29T11:09:49.318Z,11.40
2023-03-29T11:10:49.540Z,11.48
2023-03-29T11:11:49.248Z,11.59
2023-03-29T11:12:49.310Z,11.55
2023-03-29T11:13:49.451Z,11.57
2023-03-29T11:14:49.339Z,11.57
2023-03-29T11:15:49.333Z,11.41
2023-03-29T11:16:49.211Z,11.37
2023-03-29T11:17:49.318Z,11.40
2023-03-29T11:18:49.729Z,11.37
2023-03-29T11:19:49.365Z,11.17
2023-03-29T11:20:50.112Z,11.18
2023-03-29T11:21:49.219Z,11.10
2023-03-29T11:22:49.199Z,11.08
2023-03-29T11:23:49.292Z,10.99
2023-03-29T11:24:49.166Z,11.02
2023-03-29T11:25:49.317Z,10.96
2023-03-29T11:26:49.281Z,10.97
2023-03-29T11:27:49.134Z,10.99
2023-03-29T11:28:49.138Z,11.04
2023-03-29T11:29:49.142Z,10.99
2023-03-29T11:30:49.141Z,11.00
2023-03-29T11:31:49.197Z,10.97
2023-03-29T11:32:49.881Z,11.10
2023-03-29T11:33:49.092Z,11.19
2023-03-29T11:34:49.124Z,11.19
2023-03-29T11:35:49.086Z,11.32
2023-03-29T11:36:49.030Z,11.35
2023-03-29T11:37:49.047Z,11.40
2023-03-29T11:38:49.068Z,11.55
2023-03-29T11:39:49.072Z,11.60
2023-03-29T11:40:49.014Z,11.63
2023-03-29T11:41:49.079Z,11.63
2023-03-29T11:42:49.082Z,11.72
2023-03-29T11:43:49.186Z,11.66
2023-03-29T11:44:48.963Z,11.72
2023-03-29T11:45:48.973Z,11.72
2023-03-29T11:46:48.981Z,11.94
2023-03-29T11:47:48.941Z,11.77
2023-03-29T11:48:48.931Z,11.73
2023-03-29T11:49:48.981Z,11.70
2023-03-29T11:50:48.890Z,11.81
2023-03-29T11:51:48.945Z,11.73
2023-03-29T11:52:48.853Z,11.70
2023-03-29T11:53:48.943Z,11.57
2023-03-29T11:54:48.825Z,11.59
2023-03-29T11:55:48.832Z,11.55
2023-03-29T11:56:48.980Z,11.77
2023-03-29T11:57:48.825Z,11.63
2023-03-29T11:58:48.813Z,11.80
2023-03-29T11:59:48.822Z,11.91
2023-03-29T12:00:48.846Z,11.91
2023-03-29T12:01:48.910Z,11.88
2023-03-29T12:02:48.936Z,12.00
2023-03-29T12:03:48.878Z,11.90
2023-03-29T12:04:48.784Z,11.86
2023-03-29T12:05:48.772Z,12.03
2023-03-29T12:06:48.803Z,11.88
2023-03-29T12:07:48.770Z,11.95
2023-03-29T12:08:48.727Z,11.95
2023-03-29T12:09:49.289Z,12.00
2023-03-29T12:10:48.745Z,11.91
2023-03-29T12:11:48.716Z,11.99
2023-03-29T12:12:48.632Z,12.12
2023-03-29T12:13:48.743Z,12.07
2023-03-29T12:14:48.691Z,12.12
2023-03-29T12:15:48.702Z,12.18
2023-03-29T12:16:48.891Z,11.94
2023-03-29T12:17:48.751Z,11.94
2023-03-29T12:18:48.671Z,12.02
2023-03-29T12:19:48.614Z,11.97
2023-03-29T12:20:48.592Z,12.03
2023-03-29T12:21:48.629Z,12.07
2023-03-29T12:22:48.707Z,12.12
2023-03-29T12:23:48.605Z,12.15
2023-03-29T12:24:48.541Z,12.12
2023-03-29T12:25:48.616Z,12.15
2023-03-29T12:26:48.590Z,12.25
2023-03-29T12:27:48.569Z,12.20
2023-03-29T12:28:48.565Z,12.25
2023-03-29T12:29:48.506Z,12.18
2023-03-29T12:30:48.531Z,12.24
2023-03-29T12:31:48.568Z,12.27
2023-03-29T12:32:48.558Z,12.22
2023-03-29T12:33:48.477Z,12.36
2023-03-29T12:34:48.536Z,12.40
2023-03-29T12:35:48.464Z,12.42
2023-03-29T12:36:48.552Z,12.39
2023-03-29T12:37:48.493Z,12.39
2023-03-29T12:38:48.531Z,12.32
2023-03-29T12:39:48.451Z,12.42
2023-03-29T12:40:48.381Z,12.55
2023-03-29T12:41:48.463Z,12.50
2023-03-29T12:42:48.366Z,12.50
2023-03-29T12:43:48.433Z,12.58
2023-03-29T12:44:48.381Z,12.65
2023-03-29T12:45:48.452Z,12.61
2023-03-29T12:46:48.351Z,12.55
2023-03-29T12:47:48.457Z,12.60
2023-03-29T12:48:48.605Z,12.46
2023-03-29T12:49:48.309Z,12.40
2023-03-29T12:50:48.294Z,12.39
2023-03-29T12:51:48.374Z,12.49
2023-03-29T12:52:48.271Z,12.49
2023-03-29T12:53:48.415Z,12.60
2023-03-29T12:54:49.280Z,12.49
2023-03-29T12:55:48.339Z,12.49
2023-03-29T12:56:48.245Z,12.43
2023-03-29T12:57:48.246Z,12.57
2023-03-29T12:58:48.250Z,12.54
2023-03-29T12:59:48.240Z,12.45
2023-03-29T13:00:48.413Z,12.40
2023-03-29T13:01:48.278Z,12.39
2023-03-29T13:02:48.288Z,12.45
2023-03-29T13:03:48.190Z,12.46
2023-03-29T13:04:48.253Z,12.57
2023-03-29T13:05:48.188Z,12.65
2023-03-29T13:06:48.113Z,12.65
2023-03-29T13:07:48.349Z,12.70
2023-03-29T13:08:48.182Z,12.70
2023-03-29T13:09:48.058Z,12.67
2023-03-29T13:10:48.129Z,12.79
2023-03-29T13:11:48.385Z,12.76
2023-03-29T13:12:48.542Z,12.61
2023-03-29T13:13:48.073Z,12.68
2023-03-29T13:14:48.793Z,12.75
2023-03-29T13:15:48.095Z,12.67
2023-03-29T13:16:48.124Z,12.73
2023-03-29T13:17:48.078Z,12.73
2023-03-29T13:18:48.040Z,12.80
2023-03-29T13:19:48.014Z,12.86
2023-03-29T13:20:48.078Z,12.87
2023-03-29T13:21:48.013Z,12.93
2023-03-29T13:22:48.003Z,12.94
2023-03-29T13:23:47.953Z,12.97
2023-03-29T13:24:48.016Z,13.04
2023-03-29T13:25:48.625Z,13.15